createdAt,value
2019-05-15T00:00:44.654Z,82.50
2019-05-15T00:03:31.561Z,82.70
2019-05-15T00:06:19.103Z,83.20
2019-05-15T00:09:08.070Z,83.30
2019-05-15T00:11:55.335Z,83.60
2019-05-15T00:14:42.460Z,83.70
2019-05-15T00:17:29.701Z,84.10
2019-05-15T00:20:17.130Z,83.80
2019-05-15T00:23:04.289Z,84.00
2019-05-15T00:25:51.358Z,84.40
2019-05-15T00:28:38.908Z,84.90
2019-05-15T00:31:28.975Z,85.50
2019-05-15T00:34:15.252Z,86.00
2019-05-15T00:37:02.305Z,86.40
2019-05-15T00:39:49.616Z,86.40
2019-05-15T00:42:38.368Z,86.90
2019-05-15T00:45:27.775Z,85.90
2019-05-15T00:48:14.684Z,85.30
2019-05-15T00:51:01.764Z,85.20
2019-05-15T00:53:48.403Z,85.20
2019-05-15T00:56:35.715Z,85.00
2019-05-15T00:59:26.321Z,85.40
2019-05-15T01:02:10.657Z,84.50
2019-05-15T01:04:58.550Z,84.90
2019-05-15T01:07:47.981Z,85.70
2019-05-15T01:10:38.355Z,86.10
2019-05-15T01:13:24.244Z,86.40
2019-05-15T01:16:11.654Z,86.30
2019-05-15T01:18:58.852Z,85.90
2019-05-15T01:21:47.914Z,86.50
2019-05-15T01:24:34.721Z,86.60
2019-05-15T01:27:20.766Z,85.60
2019-05-15T01:30:09.402Z,86.50
2019-05-15T01:32:59.052Z,85.60
2019-05-15T01:35:45.503Z,86.20
2019-05-15T01:38:32.657Z,87.10
2019-05-15T01:41:20.000Z,87.40
2019-05-15T01:44:08.828Z,87.20
2019-05-15T01:46:58.870Z,87.40
2019-05-15T01:49:45.128Z,88.00
2019-05-15T01:52:32.402Z,87.50
2019-05-15T01:55:19.732Z,87.50
2019-05-15T01:58:09.076Z,88.30
2019-05-15T02:00:56.020Z,87.30
2019-05-15T02:03:43.160Z,87.50
2019-05-15T02:06:30.521Z,86.70
2019-05-15T02:09:18.525Z,87.40
2019-05-15T02:12:08.557Z,87.20
2019-05-15T02:14:55.143Z,87.40
2019-05-15T02:17:41.157Z,87.20
2019-05-15T02:20:29.137Z,87.20
2019-05-15T02:23:18.914Z,87.90
2019-05-15T02:26:07.869Z,87.60
2019-05-15T02:28:54.478Z,87.90
2019-05-15T02:31:41.630Z,87.80
2019-05-15T02:34:29.958Z,87.40
2019-05-15T02:37:19.284Z,87.40
2019-05-15T02:40:09.662Z,86.90
2019-05-15T02:42:55.080Z,85.20
2019-05-15T02:45:42.735Z,85.70
2019-05-15T02:48:30.010Z,85.30
2019-05-15T02:51:19.379Z,84.80
2019-05-15T02:54:05.720Z,85.10
2019-05-15T02:56:52.382Z,84.00
2019-05-15T02:59:39.652Z,83.50
2019-05-15T03:02:28.629Z,82.50
2019-05-15T03:05:15.518Z,82.10
2019-05-15T03:08:01.404Z,82.40
2019-05-15T03:10:49.613Z,81.80
2019-05-15T03:13:39.203Z,82.10
2019-05-15T03:16:25.236Z,79.90
2019-05-15T03:19:11.339Z,79.80
2019-05-15T03:21:59.872Z,80.70
2019-05-15T03:24:50.001Z,81.30
2019-05-15T03:27:39.174Z,80.60
2019-05-15T03:30:24.333Z,80.80
2019-05-15T03:33:18.493Z,80.80
2019-05-15T03:36:02.494Z,81.40
2019-05-15T03:38:49.889Z,80.50
2019-05-15T03:41:39.043Z,80.50
2019-05-15T03:44:24.710Z,80.90
2019-05-15T03:47:11.634Z,79.90
2019-05-15T03:50:00.108Z,79.30
2019-05-15T03:52:49.680Z,78.70
2019-05-15T03:55:35.648Z,79.10
2019-05-15T03:58:22.288Z,79.00
2019-05-15T04:01:27.260Z,78.50
2019-05-15T04:03:59.826Z,77.80
2019-05-15T04:06:45.913Z,77.10
2019-05-15T04:09:32.813Z,77.30
2019-05-15T04:12:19.622Z,76.30
2019-05-15T04:15:09.791Z,76.40
2019-05-15T04:17:55.428Z,75.60
2019-05-15T04:20:43.047Z,74.70
2019-05-15T04:23:30.111Z,74.60
2019-05-15T04:26:19.437Z,73.70
2019-05-15T04:29:09.738Z,72.90
2019-05-15T04:32:02.415Z,72.60
2019-05-15T04:34:44.639Z,71.50
2019-05-15T04:37:32.015Z,71.80
2019-05-15T04:40:19.535Z,71.30
2019-05-15T04:43:10.572Z,71.10
2019-05-15T04:45:59.221Z,70.60
2019-05-15T04:48:44.445Z,69.90
2019-05-15T04:51:31.933Z,70.10
2019-05-15T04:54:20.104Z,69.50
2019-05-15T04:57:09.224Z,70.20
2019-05-15T04:59:58.655Z,69.30
2019-05-15T05:02:44.953Z,68.70
2019-05-15T05:05:32.372Z,68.30
2019-05-15T05:08:20.359Z,67.60
2019-05-15T05:11:09.635Z,68.10
2019-05-15T05:13:59.041Z,67.90
2019-05-15T05:16:48.637Z,67.50
2019-05-15T05:19:34.039Z,67.60
2019-05-15T05:22:21.124Z,67.60
2019-05-15T05:25:08.024Z,66.20
2019-05-15T05:27:57.954Z,66.90
2019-05-15T05:30:44.650Z,66.60
2019-05-15T05:33:31.999Z,66.90
2019-05-15T05:36:19.563Z,66.30
2019-05-15T05:39:09.629Z,65.30
2019-05-15T05:41:58.654Z,65.70
2019-05-15T05:44:44.972Z,64.40
2019-05-15T05:47:32.264Z,63.10
2019-05-15T05:50:35.370Z,63.40
2019-05-15T05:53:22.389Z,63.40
2019-05-15T05:56:09.474Z,60.60
2019-05-15T05:58:58.629Z,60.80
2019-05-15T06:01:48.174Z,61.30
2019-05-15T06:04:34.538Z,59.90
2019-05-15T06:07:20.580Z,60.20
2019-05-15T06:10:08.901Z,59.70
2019-05-15T06:12:58.712Z,58.80
2019-05-15T06:15:45.254Z,59.30
2019-05-15T06:18:32.365Z,60.70
2019-05-15T06:21:19.802Z,58.30
2019-05-15T06:24:12.991Z,57.80
2019-05-15T06:26:55.878Z,56.50
2019-05-15T06:29:42.688Z,57.40
2019-05-15T06:32:30.112Z,56.30
2019-05-15T06:35:19.410Z,54.90
2019-05-15T06:38:08.562Z,54.70
2019-05-15T06:40:58.115Z,54.10
2019-05-15T06:43:44.241Z,55.10
2019-05-15T06:46:31.541Z,55.40
2019-05-15T06:49:18.945Z,54.00
2019-05-15T06:52:08.657Z,54.10
2019-05-15T06:54:55.454Z,53.20
2019-05-15T06:57:42.631Z,52.60
2019-05-15T07:00:28.781Z,53.20
2019-05-15T07:03:23.933Z,52.10
2019-05-15T07:06:04.807Z,53.50
2019-05-15T07:08:51.973Z,53.40
2019-05-15T07:11:38.823Z,53.30
2019-05-15T07:14:25.876Z,51.40
2019-05-15T07:17:12.480Z,50.80
2019-05-15T07:19:59.166Z,52.00
2019-05-15T07:22:48.947Z,51.80
2019-05-15T07:25:35.007Z,52.40
2019-05-15T07:28:22.122Z,52.70
2019-05-15T07:31:11.583Z,51.90
2019-05-15T07:33:59.861Z,50.20
2019-05-15T07:36:49.178Z,49.20
2019-05-15T07:39:38.164Z,49.00
2019-05-15T07:42:24.901Z,49.90
2019-05-15T07:45:13.331Z,47.90
2019-05-15T07:48:00.662Z,45.80
2019-05-15T07:50:49.793Z,44.90
2019-05-15T07:53:38.458Z,44.50
2019-05-15T07:56:25.802Z,41.90
2019-05-15T07:59:13.314Z,39.60
2019-05-15T08:02:00.850Z,38.90
2019-05-15T08:04:48.274Z,37.10
2019-05-15T08:07:35.701Z,37.80
2019-05-15T08:10:22.924Z,35.40
2019-05-15T08:13:10.034Z,35.90
2019-05-15T08:15:58.040Z,33.60
2019-05-15T08:18:45.508Z,35.30
2019-05-15T08:21:31.662Z,33.30
2019-05-15T08:24:18.982Z,31.90
2019-05-15T08:27:08.297Z,31.70
2019-05-15T08:29:58.005Z,33.10
2019-05-15T08:32:44.849Z,33.50
2019-05-15T08:35:31.782Z,30.20
2019-05-15T08:38:18.965Z,31.80
2019-05-15T08:41:11.126Z,31.60
2019-05-15T08:43:55.416Z,29.80
2019-05-15T08:46:44.336Z,30.00
2019-05-15T08:49:31.880Z,31.70
2019-05-15T08:52:19.280Z,31.40
2019-05-15T08:55:08.584Z,29.60
2019-05-15T08:58:04.247Z,30.00
2019-05-15T09:00:44.712Z,30.00
2019-05-15T09:03:32.461Z,29.60
2019-05-15T09:06:22.861Z,30.70
2019-05-15T09:09:09.550Z,29.70
2019-05-15T09:11:58.476Z,29.60
2019-05-15T09:14:46.048Z,29.60
2019-05-15T09:17:32.992Z,29.90
2019-05-15T09:20:20.604Z,30.00
2019-05-15T09:23:08.970Z,30.20
2019-05-15T09:25:57.912Z,29.60
2019-05-15T09:28:44.924Z,27.50
2019-05-15T09:31:32.389Z,29.40
2019-05-15T09:34:19.656Z,28.40
2019-05-15T09:37:08.613Z,28.60
2019-05-15T09:39:58.248Z,28.70
2019-05-15T09:42:44.538Z,29.30
2019-05-15T09:45:31.711Z,29.00
2019-05-15T09:48:19.954Z,29.10
2019-05-15T09:51:09.217Z,29.10
2019-05-15T09:53:55.838Z,29.60
2019-05-15T09:56:42.770Z,29.60
2019-05-15T09:59:29.815Z,27.50
2019-05-15T10:02:18.957Z,27.70
2019-05-15T10:05:10.463Z,27.50
2019-05-15T10:07:54.330Z,28.00
2019-05-15T10:10:41.564Z,28.30
2019-05-15T10:13:28.957Z,27.40
2019-05-15T10:16:15.948Z,28.00
2019-05-15T10:19:02.939Z,28.30
2019-05-15T10:21:52.784Z,29.00
2019-05-15T10:24:38.510Z,27.50
2019-05-15T10:27:25.699Z,27.50
2019-05-15T10:30:12.936Z,28.20
2019-05-15T10:33:00.156Z,28.00
2019-05-15T10:35:47.170Z,28.70
2019-05-15T10:38:34.036Z,28.10
2019-05-15T10:41:21.006Z,27.50
2019-05-15T10:44:09.059Z,27.60
2019-05-15T10:46:58.491Z,27.70
2019-05-15T10:49:45.660Z,27.70
2019-05-15T10:52:32.550Z,29.00
2019-05-15T10:55:19.342Z,27.40
2019-05-15T10:58:06.721Z,27.80
2019-05-15T11:00:53.675Z,27.10
2019-05-15T11:03:40.632Z,27.30
2019-05-15T11:06:28.813Z,26.60
2019-05-15T11:09:18.470Z,26.90
2019-05-15T11:12:04.643Z,26.50
2019-05-15T11:14:51.726Z,26.60
2019-05-15T11:17:39.081Z,27.10
2019-05-15T11:20:25.942Z,27.50
2019-05-15T11:23:14.725Z,27.10
2019-05-15T11:26:01.688Z,27.10
2019-05-15T11:28:49.807Z,27.40
2019-05-15T11:31:39.134Z,26.40
2019-05-15T11:34:25.488Z,27.80
2019-05-15T11:37:12.428Z,28.00
2019-05-15T11:39:59.282Z,27.40
2019-05-15T11:42:48.581Z,27.10
2019-05-15T11:45:34.809Z,27.70
2019-05-15T11:48:21.791Z,27.20
2019-05-15T11:51:09.830Z,26.90
2019-05-15T11:53:58.794Z,26.50
2019-05-15T11:56:45.192Z,26.40
2019-05-15T11:59:32.204Z,25.60
2019-05-15T12:02:19.368Z,26.10
2019-05-15T12:05:09.158Z,27.00
2019-05-15T12:07:57.888Z,26.20
2019-05-15T12:10:45.391Z,25.90
2019-05-15T12:13:32.667Z,25.80
2019-05-15T12:16:20.021Z,25.90
2019-05-15T12:19:09.643Z,26.00
2019-05-15T12:21:59.625Z,26.10
2019-05-15T12:24:45.301Z,25.80
2019-05-15T12:27:32.589Z,25.50
2019-05-15T12:30:20.331Z,26.60
2019-05-15T12:33:09.172Z,25.80
2019-05-15T12:35:56.007Z,25.30
2019-05-15T12:38:43.189Z,25.20
2019-05-15T13:01:17.182Z,24.80
2019-05-15T13:04:01.501Z,24.60
2019-05-15T13:07:04.281Z,24.70
2019-05-15T13:09:38.222Z,25.10
2019-05-15T13:12:25.306Z,23.70
2019-05-15T13:15:13.345Z,24.00
2019-05-15T13:18:00.805Z,23.40
2019-05-15T13:20:49.031Z,24.30
2019-05-15T13:23:38.572Z,24.20
2019-05-15T13:26:27.026Z,23.90
2019-05-15T13:29:14.484Z,23.60
2019-05-15T13:32:02.054Z,23.60
2019-05-15T13:34:49.412Z,24.20
2019-05-15T13:37:38.888Z,24.10
2019-05-15T13:40:35.016Z,24.20
2019-05-15T13:43:14.456Z,23.40
2019-05-15T13:46:01.894Z,23.80
2019-05-15T13:48:49.513Z,24.50
2019-05-15T13:51:38.357Z,24.50
2019-05-15T13:54:28.414Z,23.80
2019-05-15T13:57:14.905Z,23.60
2019-05-15T14:00:02.105Z,22.20
2019-05-15T14:02:49.216Z,21.90
2019-05-15T14:05:38.315Z,20.90
2019-05-15T14:08:25.223Z,21.30
2019-05-15T14:11:12.553Z,21.10
2019-05-15T14:13:59.989Z,21.40
2019-05-15T15:33:20.736Z,26.10
2019-05-15T15:36:08.829Z,25.70
2019-05-15T15:38:58.640Z,27.00
2019-05-15T15:41:45.379Z,25.60
2019-05-15T15:44:32.504Z,25.40
2019-05-15T15:47:19.323Z,26.00
2019-05-15T15:50:09.163Z,26.60
2019-05-15T15:52:55.018Z,26.20
2019-05-15T15:55:41.764Z,25.90
2019-05-15T15:58:29.232Z,24.90
2019-05-15T16:01:18.450Z,25.40
2019-05-15T16:04:05.351Z,24.50
2019-05-15T16:06:52.019Z,24.30
2019-05-15T16:09:38.979Z,23.70
2019-05-15T16:12:27.810Z,24.70
2019-05-15T16:15:14.967Z,25.80
2019-05-15T16:18:01.870Z,26.70
2019-05-15T16:20:48.670Z,25.50
2019-05-15T16:23:35.335Z,25.50
2019-05-15T16:26:22.220Z,25.60
2019-05-15T16:29:09.369Z,25.50
2019-05-15T16:31:58.202Z,25.90
2019-05-15T16:34:45.146Z,24.40
2019-05-15T16:37:32.217Z,26.10
2019-05-15T16:40:19.522Z,25.50
2019-05-15T16:43:06.591Z,26.50
2019-05-15T16:45:53.803Z,26.90
2019-05-15T16:48:42.492Z,26.20
2019-05-15T16:51:32.280Z,26.40
2019-05-15T16:54:18.282Z,25.80
2019-05-15T16:57:05.872Z,26.10
2019-05-15T16:59:52.669Z,26.30
2019-05-15T17:02:40.344Z,25.20
2019-05-15T17:05:29.170Z,26.30
2019-05-15T17:08:17.931Z,26.90
2019-05-15T17:11:05.053Z,26.90
2019-05-15T17:13:51.910Z,25.70
2019-05-15T17:16:38.919Z,26.90
2019-05-15T17:19:29.147Z,26.70
2019-05-15T17:22:15.131Z,28.10
2019-05-15T17:25:02.462Z,26.70
2019-05-15T17:27:49.777Z,27.50
2019-05-15T17:30:38.206Z,26.90
2019-05-15T17:33:25.789Z,27.20
2019-05-15T17:36:13.001Z,27.70
2019-05-15T17:39:00.333Z,27.20
2019-05-15T17:41:48.236Z,27.90
2019-05-15T17:44:38.056Z,27.80
2019-05-15T17:47:24.478Z,27.70
2019-05-15T17:50:12.417Z,28.60
2019-05-15T17:52:59.324Z,28.00
2019-05-15T17:55:47.550Z,27.80
2019-05-15T17:58:34.090Z,29.30
2019-05-15T18:01:20.896Z,28.30
2019-05-15T18:04:08.566Z,29.00
2019-05-15T18:06:55.926Z,29.30
2019-05-15T18:09:51.600Z,29.90
2019-05-15T18:12:32.489Z,29.10
2019-05-15T18:15:20.356Z,29.20
2019-05-15T18:18:09.933Z,29.50
2019-05-15T18:20:58.116Z,30.00
2019-05-15T18:23:48.493Z,29.40
2019-05-15T18:26:34.468Z,29.80
2019-05-15T18:29:21.597Z,29.60
2019-05-15T18:32:09.174Z,30.00
2019-05-15T18:34:58.650Z,30.20
2019-05-15T18:37:45.444Z,30.80
2019-05-15T18:40:32.497Z,31.20
2019-05-15T18:43:19.588Z,31.70
2019-05-15T18:46:08.856Z,32.90
2019-05-15T18:48:57.577Z,32.30
2019-05-15T18:51:44.401Z,33.30
2019-05-15T18:54:31.771Z,34.10
2019-05-15T18:57:18.896Z,33.20
2019-05-15T19:00:05.760Z,34.10
2019-05-15T19:02:52.936Z,33.80
2019-05-15T19:05:40.412Z,34.30
2019-05-15T19:08:28.345Z,34.60
2019-05-15T19:11:17.814Z,34.90
2019-05-15T19:14:04.918Z,35.60
2019-05-15T19:16:52.268Z,35.70
2019-05-15T19:19:39.361Z,36.80
2019-05-15T19:22:25.477Z,36.10
2019-05-15T19:25:13.254Z,36.80
2019-05-15T19:28:00.173Z,36.60
2019-05-15T19:30:48.088Z,38.00
2019-05-15T19:33:38.184Z,38.40
2019-05-15T19:36:24.545Z,39.50
2019-05-15T19:39:11.826Z,39.10
2019-05-15T19:41:58.748Z,38.50
2019-05-15T19:44:48.323Z,39.50
2019-05-15T19:47:34.711Z,38.80
2019-05-15T19:50:21.919Z,39.00
2019-05-15T19:53:09.288Z,39.70
2019-05-15T19:55:57.974Z,40.30
2019-05-15T19:58:45.241Z,40.10
2019-05-15T20:01:32.516Z,41.00
2019-05-15T20:04:19.648Z,41.20
2019-05-15T20:07:07.901Z,41.20
2019-05-15T20:09:54.653Z,41.50
2019-05-15T20:12:41.890Z,42.00
2019-05-15T20:15:29.523Z,41.60
2019-05-15T20:18:15.616Z,43.70
2019-05-15T20:21:05.585Z,42.90
2019-05-15T20:23:53.060Z,41.70
2019-05-15T20:26:40.288Z,42.30
2019-05-15T20:29:28.962Z,42.00
2019-05-15T20:32:18.299Z,42.20
2019-05-15T20:35:08.618Z,43.10
2019-05-15T20:37:57.977Z,44.10
2019-05-15T20:40:44.511Z,45.20
2019-05-15T20:43:31.627Z,46.70
2019-05-15T20:46:19.499Z,46.80
2019-05-15T20:49:08.553Z,47.60
2019-05-15T20:51:58.074Z,47.70
2019-05-15T20:54:43.991Z,46.20
2019-05-15T20:57:30.212Z,46.70
2019-05-15T21:00:19.164Z,47.10
2019-05-15T21:03:08.447Z,46.20
2019-05-15T21:05:55.003Z,45.60
2019-05-15T21:08:41.620Z,45.50
2019-05-15T21:11:28.683Z,44.80
2019-05-15T21:14:14.760Z,47.30
2019-05-15T21:17:02.019Z,45.50
2019-05-15T21:19:49.407Z,45.00
2019-05-15T21:22:35.608Z,46.40
2019-05-15T21:25:22.512Z,45.10
2019-05-15T21:28:09.720Z,44.70
2019-05-15T21:30:58.129Z,44.70
2019-05-15T21:33:44.961Z,44.80
2019-05-15T21:36:31.381Z,45.10
2019-05-15T21:39:18.118Z,44.60
2019-05-15T21:42:04.297Z,44.80
2019-05-15T21:44:51.404Z,45.20
2019-05-15T21:47:38.614Z,44.70
2019-05-15T21:50:28.219Z,44.90
2019-05-15T21:53:14.075Z,45.20
2019-05-15T21:56:01.091Z,45.30
2019-05-15T21:58:48.305Z,45.50
2019-05-15T22:01:35.416Z,45.40
2019-05-15T22:04:21.574Z,45.50
2019-05-15T22:07:09.060Z,45.70
2019-05-15T22:09:55.990Z,46.30
2019-05-15T22:12:42.113Z,46.60
2019-05-15T22:15:29.007Z,46.60
2019-05-15T22:18:15.889Z,46.80
2019-05-15T22:21:01.991Z,47.10
2019-05-15T22:23:48.924Z,47.30
2019-05-15T22:26:38.138Z,47.80
2019-05-15T22:29:24.706Z,48.20
2019-05-15T22:32:11.663Z,48.30
2019-05-15T22:35:07.134Z,49.10
2019-05-15T22:37:49.285Z,49.50
2019-05-15T22:40:38.024Z,50.10
2019-05-15T22:43:25.764Z,49.90
2019-05-15T22:46:11.909Z,50.30
2019-05-15T22:48:59.207Z,50.00
2019-05-15T22:51:48.627Z,50.00
2019-05-15T22:54:35.491Z,51.00
2019-05-15T22:57:22.660Z,50.10
2019-05-15T23:00:10.858Z,50.50
2019-05-15T23:02:58.386Z,49.70
2019-05-15T23:05:45.556Z,49.60
2019-05-15T23:08:32.537Z,50.00
2019-05-15T23:11:19.638Z,49.60
2019-05-15T23:14:08.139Z,49.40
2019-05-15T23:16:55.661Z,50.10
2019-05-15T23:19:43.025Z,49.10
2019-05-15T23:22:30.324Z,49.00
2019-05-15T23:25:18.207Z,49.00
2019-05-15T23:28:05.671Z,49.00
2019-05-15T23:30:51.752Z,49.90
2019-05-15T23:33:39.038Z,49.50
2019-05-15T23:36:25.241Z,49.30
2019-05-15T23:39:12.430Z,49.30
2019-05-15T23:42:00.005Z,48.90
2019-05-15T23:44:46.092Z,49.40
2019-05-15T23:47:33.350Z,48.80
2019-05-15T23:50:20.410Z,48.80
2019-05-15T23:53:08.696Z,49.20
2019-05-15T23:55:55.607Z,48.80
2019-05-15T23:58:42.824Z,48.90
